createdAt,value
2019-05-06T00:02:13.663Z,12.40
2019-05-06T00:04:44.837Z,15.50
2019-05-06T00:07:15.867Z,14.30
2019-05-06T00:09:46.851Z,14.47
2019-05-06T00:12:17.895Z,14.07
2019-05-06T00:14:48.877Z,12.27
2019-05-06T00:17:19.856Z,11.43
2019-05-06T00:19:50.841Z,14.53
2019-05-06T00:22:23.625Z,13.47
2019-05-06T00:24:59.963Z,13.33
2019-05-06T00:27:37.695Z,13.63
2019-05-06T00:30:09.080Z,14.00
2019-05-06T00:32:41.251Z,12.27
2019-05-06T00:35:14.200Z,14.63
2019-05-06T00:37:44.907Z,13.23
2019-05-06T00:40:24.392Z,13.83
2019-05-06T00:43:05.983Z,14.77
2019-05-06T00:45:37.031Z,13.47
2019-05-06T00:48:08.039Z,14.73
2019-05-06T00:50:39.059Z,13.30
2019-05-06T00:53:14.171Z,12.70
2019-05-06T00:55:45.355Z,17.57
2019-05-06T00:58:16.411Z,15.23
2019-05-06T01:00:47.412Z,11.27
2019-05-06T01:03:19.627Z,11.80
2019-05-06T01:05:50.695Z,15.13
2019-05-06T01:08:23.793Z,11.00
2019-05-06T01:10:54.515Z,13.20
2019-05-06T01:13:40.273Z,12.77
2019-05-06T01:16:12.383Z,12.50
2019-05-06T01:18:43.548Z,14.97
2019-05-06T01:21:14.727Z,12.57
2019-05-06T01:23:46.598Z,13.63
2019-05-06T01:26:18.400Z,11.87
2019-05-06T01:28:49.411Z,12.30
2019-05-06T01:31:20.468Z,9.77
2019-05-06T01:33:53.427Z,10.97
2019-05-06T01:36:24.961Z,11.90
2019-05-06T01:39:21.143Z,11.07
2019-05-06T01:42:15.935Z,12.70
2019-05-06T01:44:46.954Z,12.80
2019-05-06T01:47:17.947Z,12.27
2019-05-06T01:49:48.356Z,12.43
2019-05-06T01:52:19.231Z,13.43
2019-05-06T01:54:50.315Z,15.40
2019-05-06T01:57:21.331Z,14.70
2019-05-06T01:59:53.980Z,18.63
2019-05-06T02:02:25.327Z,15.33
2019-05-06T02:04:56.311Z,16.50
2019-05-06T02:07:27.303Z,16.57
2019-05-06T02:09:58.323Z,14.37
2019-05-06T02:12:29.327Z,18.57
2019-05-06T02:15:00.415Z,16.77
2019-05-06T02:17:31.487Z,16.90
2019-05-06T02:20:04.204Z,15.20
2019-05-06T02:22:43.824Z,15.03
2019-05-06T02:25:19.367Z,15.00
2019-05-06T02:27:50.427Z,15.70
2019-05-06T02:30:39.816Z,14.27
2019-05-06T02:33:35.550Z,15.23
2019-05-06T02:36:25.762Z,15.37
2019-05-06T02:38:56.632Z,13.70
2019-05-06T02:41:26.955Z,15.30
2019-05-06T02:43:57.784Z,17.07
2019-05-06T02:46:29.063Z,14.77
2019-05-06T02:49:17.903Z,15.27
2019-05-06T02:51:48.879Z,16.53
2019-05-06T02:54:23.158Z,14.50
2019-05-06T02:56:53.133Z,14.30
2019-05-06T02:59:24.400Z,18.53
2019-05-06T03:01:56.494Z,17.30
2019-05-06T03:04:27.872Z,16.97
2019-05-06T03:06:58.869Z,18.80
2019-05-06T03:09:29.851Z,15.37
2019-05-06T03:12:03.535Z,14.90
2019-05-06T03:14:34.806Z,15.43
2019-05-06T03:17:05.796Z,16.13
2019-05-06T03:19:38.419Z,17.87
2019-05-06T03:22:35.895Z,16.33
2019-05-06T03:25:13.624Z,16.70
2019-05-06T03:27:46.993Z,17.30
2019-05-06T03:30:17.396Z,18.23
2019-05-06T03:33:23.456Z,18.80
2019-05-06T03:35:36.323Z,17.23
2019-05-06T03:37:53.399Z,17.53
2019-05-06T03:40:23.962Z,17.87
2019-05-06T03:42:54.787Z,18.97
2019-05-06T03:45:35.587Z,18.50
2019-05-06T03:48:12.983Z,17.53
2019-05-06T03:50:44.039Z,17.07
2019-05-06T03:53:14.368Z,19.00
2019-05-06T03:55:47.126Z,15.57
2019-05-06T03:58:19.416Z,20.23
2019-05-06T04:00:52.892Z,17.47
2019-05-06T04:03:41.178Z,15.90
2019-05-06T04:05:55.875Z,17.37
2019-05-06T04:08:27.551Z,18.53
2019-05-06T04:10:58.952Z,18.23
2019-05-06T04:13:33.208Z,19.77
2019-05-06T04:16:28.604Z,15.67
2019-05-06T04:19:13.190Z,20.03
2019-05-06T04:22:03.834Z,19.77
2019-05-06T04:24:44.551Z,19.13
2019-05-06T04:28:03.051Z,16.53
2019-05-06T04:30:33.572Z,20.23
2019-05-06T04:33:04.832Z,18.87
2019-05-06T04:35:35.944Z,20.37
2019-05-06T04:38:06.963Z,19.00
2019-05-06T04:40:38.152Z,19.80
2019-05-06T04:43:08.611Z,22.23
2019-05-06T04:45:39.608Z,28.10
2019-05-06T04:48:14.420Z,20.47
2019-05-06T04:50:44.847Z,21.37
2019-05-06T04:53:17.935Z,18.10
2019-05-06T04:55:48.936Z,22.03
2019-05-06T04:58:23.099Z,18.17
2019-05-06T05:00:53.148Z,22.53
2019-05-06T05:03:23.907Z,30.83
2019-05-06T05:05:54.683Z,20.33
2019-05-06T05:08:37.015Z,14.83
2019-05-06T05:11:16.007Z,13.17
2019-05-06T05:14:14.757Z,13.53
2019-05-06T05:17:12.860Z,14.00
2019-05-06T05:19:44.228Z,13.33
2019-05-06T05:22:15.331Z,12.77
2019-05-06T05:24:46.347Z,15.43
2019-05-06T05:27:17.446Z,15.20
2019-05-06T05:29:48.467Z,14.20
2019-05-06T05:32:19.627Z,17.80
2019-05-06T05:34:52.247Z,18.43
2019-05-06T05:37:23.334Z,19.20
2019-05-06T05:39:54.363Z,17.63
2019-05-06T05:42:52.131Z,15.53
2019-05-06T05:45:22.792Z,21.80
2019-05-06T05:47:55.435Z,18.47
2019-05-06T05:50:36.412Z,16.60
2019-05-06T05:53:07.408Z,18.10
2019-05-06T05:55:38.409Z,20.40
2019-05-06T05:58:09.407Z,18.77
2019-05-06T06:00:42.588Z,21.30
2019-05-06T06:03:13.407Z,20.33
2019-05-06T06:05:44.585Z,22.63
2019-05-06T06:08:15.759Z,22.93
2019-05-06T06:10:52.406Z,21.43
2019-05-06T06:13:23.771Z,24.07
2019-05-06T06:16:13.017Z,22.47
2019-05-06T06:19:03.226Z,18.77
2019-05-06T06:21:38.340Z,17.40
2019-05-06T06:24:23.247Z,22.13
2019-05-06T06:26:54.340Z,22.30
2019-05-06T06:29:25.376Z,20.67
2019-05-06T06:32:14.250Z,19.33
2019-05-06T06:35:07.457Z,20.87
2019-05-06T06:37:46.379Z,19.97
2019-05-06T06:40:18.587Z,19.53
2019-05-06T06:42:53.083Z,17.93
2019-05-06T06:45:24.121Z,18.90
2019-05-06T06:47:55.142Z,17.13
2019-05-06T06:50:26.563Z,17.03
2019-05-06T06:52:57.563Z,19.17
2019-05-06T06:55:28.567Z,18.77
2019-05-06T06:58:22.723Z,16.70
2019-05-06T07:01:12.943Z,15.73
2019-05-06T07:03:48.783Z,13.23
2019-05-06T07:06:37.662Z,15.83
2019-05-06T07:09:09.269Z,14.80
2019-05-06T07:11:42.648Z,13.27
2019-05-06T07:14:13.694Z,13.70
2019-05-06T07:16:44.899Z,7.60
2019-05-06T07:19:18.939Z,6.90
2019-05-06T07:21:55.579Z,8.50
2019-05-06T07:24:26.631Z,7.10
2019-05-06T07:27:22.910Z,7.27
2019-05-06T07:29:54.047Z,7.87
2019-05-06T07:32:25.106Z,5.40
2019-05-06T07:34:56.146Z,6.13
2019-05-06T07:37:27.127Z,5.60
2019-05-06T07:39:58.419Z,6.77
2019-05-06T07:42:36.157Z,5.97
2019-05-06T07:45:27.075Z,5.13
2019-05-06T07:48:00.606Z,5.00
2019-05-06T07:50:33.215Z,5.17
2019-05-06T07:53:08.624Z,5.17
2019-05-06T07:55:42.187Z,4.87
2019-05-06T07:58:13.781Z,6.67
2019-05-06T08:00:44.935Z,6.03
2019-05-06T08:03:16.581Z,4.35
2019-05-06T08:05:55.729Z,4.55
2019-05-06T08:08:23.077Z,5.43
2019-05-06T08:10:55.179Z,3.83
2019-05-06T08:13:26.167Z,3.47
2019-05-06T08:15:57.172Z,2.93
2019-05-06T08:18:28.159Z,4.87
2019-05-06T08:21:02.496Z,6.80
2019-05-06T08:23:44.368Z,4.37
2019-05-06T08:26:17.483Z,3.87
2019-05-06T08:28:48.143Z,5.77
2019-05-06T08:31:22.185Z,3.90
2019-05-06T08:33:52.702Z,4.83
2019-05-06T08:36:35.380Z,5.40
2019-05-06T08:39:07.081Z,4.83
2019-05-06T08:41:37.947Z,3.80
2019-05-06T08:44:08.931Z,4.83
2019-05-06T08:46:39.926Z,3.93
2019-05-06T08:49:12.159Z,3.17
2019-05-06T08:51:53.121Z,4.37
2019-05-06T08:54:32.483Z,4.50
2019-05-06T08:57:03.514Z,5.27
2019-05-06T08:59:34.611Z,3.40
2019-05-06T09:02:06.063Z,5.30
2019-05-06T09:04:37.162Z,3.40
2019-05-06T09:07:08.139Z,5.43
2019-05-06T09:09:39.135Z,5.07
2019-05-06T09:12:12.996Z,4.30
2019-05-06T09:14:44.223Z,3.80
2019-05-06T09:17:15.223Z,2.90
2019-05-06T09:19:45.536Z,1.67
2019-05-06T09:22:16.328Z,7.20
2019-05-06T09:24:47.979Z,2.00
2019-05-06T09:27:42.123Z,2.00
2019-05-06T09:30:23.087Z,1.52
2019-05-06T09:32:54.148Z,2.17
2019-05-06T09:35:25.714Z,3.17
2019-05-06T09:37:57.315Z,2.22
2019-05-06T09:40:28.871Z,3.42
2019-05-06T09:42:59.806Z,2.15
2019-05-06T09:45:32.986Z,2.87
2019-05-06T09:48:13.175Z,5.03
2019-05-06T09:50:46.734Z,3.25
2019-05-06T09:53:23.119Z,3.25
2019-05-06T09:56:33.503Z,3.33
2019-05-06T09:59:04.839Z,4.33
2019-05-06T10:01:35.959Z,2.98
2019-05-06T10:04:08.125Z,3.50
2019-05-06T10:06:54.880Z,3.33
2019-05-06T10:09:15.892Z,2.75
2019-05-06T10:11:44.886Z,2.90
2019-05-06T10:14:15.355Z,3.62
2019-05-06T10:16:46.891Z,2.08
2019-05-06T10:19:18.547Z,2.65
2019-05-06T10:21:50.168Z,3.22
2019-05-06T10:24:21.819Z,2.90
2019-05-06T10:26:57.627Z,3.15
2019-05-06T10:29:37.259Z,4.53
2019-05-06T10:32:14.991Z,6.72
2019-05-06T10:34:46.615Z,3.47
2019-05-06T10:37:29.376Z,4.47
2019-05-06T10:40:26.395Z,6.83
2019-05-06T10:43:08.136Z,3.65
2019-05-06T10:45:38.484Z,5.72
2019-05-06T10:48:09.911Z,5.35
2019-05-06T10:50:45.465Z,3.73
2019-05-06T10:53:23.072Z,6.90
2019-05-06T10:55:54.215Z,6.70
2019-05-06T10:58:25.088Z,4.50
2019-05-06T11:01:23.116Z,6.93
2019-05-06T11:03:54.291Z,7.17
2019-05-06T11:06:25.294Z,4.97
2019-05-06T11:08:56.275Z,2.97
2019-05-06T11:11:36.998Z,5.50
2019-05-06T11:13:59.907Z,4.77
2019-05-06T11:16:33.120Z,3.80
2019-05-06T11:19:05.181Z,4.75
2019-05-06T11:21:36.906Z,3.47
2019-05-06T11:24:07.890Z,4.08
2019-05-06T11:26:39.980Z,4.37
2019-05-06T11:29:17.513Z,8.18
2019-05-06T11:32:05.971Z,6.25
2019-05-06T11:34:45.322Z,4.12
2019-05-06T11:37:25.251Z,6.55
2019-05-06T11:39:56.227Z,7.97
2019-05-06T11:42:32.128Z,6.75
2019-05-06T11:44:59.061Z,6.30
2019-05-06T11:47:32.499Z,4.20
2019-05-06T11:50:05.065Z,10.07
2019-05-06T11:52:37.260Z,6.07
2019-05-06T11:55:08.547Z,7.47
2019-05-06T11:57:44.520Z,9.57
2019-05-06T12:00:17.887Z,8.60
2019-05-06T12:02:49.155Z,9.83
2019-05-06T12:05:22.248Z,6.87
2019-05-06T12:08:03.777Z,5.37
2019-05-06T12:10:25.847Z,6.83
2019-05-06T12:12:56.955Z,10.43
2019-05-06T12:15:28.079Z,9.40
2019-05-06T12:17:59.065Z,10.10
2019-05-06T12:20:30.056Z,5.30
2019-05-06T12:23:04.444Z,11.00
2019-05-06T12:25:33.770Z,8.77
2019-05-06T12:28:04.787Z,7.07
2019-05-06T12:30:35.763Z,5.50
2019-05-06T12:33:34.848Z,9.97
2019-05-06T12:36:20.283Z,8.17
2019-05-06T12:39:10.076Z,7.77
2019-05-06T12:42:09.051Z,8.90
2019-05-06T12:44:41.455Z,6.20
2019-05-06T12:47:32.943Z,6.13
2019-05-06T12:50:06.335Z,6.57
2019-05-06T12:52:37.328Z,6.57
2019-05-06T12:55:18.490Z,6.87
2019-05-06T12:57:43.179Z,8.23
2019-05-06T13:00:14.407Z,8.13
2019-05-06T13:02:45.500Z,10.77
2019-05-06T13:05:16.889Z,10.07
2019-05-06T13:07:48.167Z,7.83
2019-05-06T13:10:23.045Z,16.27
2019-05-06T13:13:02.335Z,10.63
2019-05-06T13:15:33.837Z,9.23
2019-05-06T13:18:07.092Z,9.95
2019-05-06T13:20:38.240Z,6.35
2019-05-06T13:23:26.944Z,8.58
2019-05-06T13:25:57.895Z,7.72
2019-05-06T13:28:33.383Z,11.88
2019-05-06T13:31:15.762Z,8.35
2019-05-06T13:34:06.050Z,6.30
2019-05-06T13:36:37.063Z,21.93
2019-05-06T13:39:14.394Z,5.15
2019-05-06T13:41:42.235Z,6.60
2019-05-06T13:44:15.563Z,5.33
2019-05-06T13:46:49.059Z,2.90
2019-05-06T13:49:32.977Z,4.70
2019-05-06T13:52:09.182Z,14.87
2019-05-06T13:54:42.210Z,7.70
2019-05-06T13:57:13.990Z,4.05
2019-05-06T13:59:45.650Z,4.47
2019-05-06T14:02:24.025Z,6.50
2019-05-06T14:04:55.683Z,4.53
2019-05-06T14:07:26.588Z,68.72
2019-05-06T14:09:58.039Z,5.83
2019-05-06T14:12:29.655Z,3.98
2019-05-06T14:15:04.093Z,3.98
2019-05-06T14:17:34.566Z,5.60
2019-05-06T14:20:06.442Z,4.53
2019-05-06T14:22:37.527Z,5.90
2019-05-06T14:25:33.231Z,3.83
2019-05-06T14:28:14.539Z,4.97
2019-05-06T14:31:03.924Z,3.40
2019-05-06T14:33:34.923Z,6.40
2019-05-06T14:36:05.920Z,4.47
2019-05-06T14:38:36.945Z,3.93
2019-05-06T14:41:17.704Z,2.67
2019-05-06T14:43:48.764Z,6.12
2019-05-06T14:46:19.075Z,8.80
2019-05-06T14:48:49.971Z,8.48
2019-05-06T14:51:22.290Z,3.72
2019-05-06T14:53:55.329Z,2.90
2019-05-06T14:56:33.939Z,4.78
2019-05-06T14:59:07.876Z,6.25
2019-05-06T15:01:44.877Z,8.10
2019-05-06T15:04:12.725Z,8.87
2019-05-06T15:06:45.368Z,15.60
2019-05-06T15:09:17.127Z,8.33
2019-05-06T15:11:48.727Z,17.52
2019-05-06T15:14:22.722Z,11.43
2019-05-06T15:16:53.371Z,10.55
2019-05-06T15:19:24.116Z,11.60
2019-05-06T15:21:55.531Z,3.13
2019-05-06T15:24:26.600Z,3.77
2019-05-06T15:26:57.647Z,5.10
2019-05-06T15:29:29.808Z,3.13
2019-05-06T15:32:22.155Z,6.20
2019-05-06T15:35:12.799Z,4.53
2019-05-06T15:37:48.411Z,3.77
2019-05-06T15:40:31.262Z,5.27
2019-05-06T15:42:53.360Z,9.27
2019-05-06T15:45:23.787Z,7.23
2019-05-06T15:47:54.589Z,3.50
2019-05-06T15:50:25.619Z,5.60
2019-05-06T15:52:55.927Z,3.57
2019-05-06T15:55:26.743Z,3.03
2019-05-06T15:57:57.050Z,8.30
2019-05-06T16:00:28.003Z,4.70
2019-05-06T16:02:59.092Z,3.67
2019-05-06T16:05:31.688Z,27.23
2019-05-06T16:08:02.841Z,8.53
2019-05-06T16:10:50.950Z,9.67
2019-05-06T16:13:06.083Z,12.30
2019-05-06T16:15:37.954Z,12.60
2019-05-06T16:18:08.302Z,3.93
2019-05-06T16:20:39.115Z,6.80
2019-05-06T16:23:23.140Z,3.90
2019-05-06T16:25:53.419Z,3.30
2019-05-06T16:28:23.607Z,9.17
2019-05-06T16:30:53.769Z,17.87
2019-05-06T16:33:23.903Z,18.40
2019-05-06T16:35:54.767Z,3.17
2019-05-06T16:38:25.506Z,2.53
2019-05-06T16:41:09.370Z,3.87
2019-05-06T16:43:29.019Z,4.03
2019-05-06T16:46:03.293Z,3.77
2019-05-06T16:48:34.166Z,3.27
2019-05-06T16:51:05.367Z,4.97
2019-05-06T16:53:36.479Z,3.10
2019-05-06T16:56:23.063Z,6.13
2019-05-06T16:58:57.248Z,10.60
2019-05-06T17:01:28.263Z,4.23
2019-05-06T17:04:17.333Z,5.47
2019-05-06T17:06:48.403Z,5.00
2019-05-06T17:09:24.268Z,9.13
2019-05-06T17:11:52.185Z,5.10
2019-05-06T17:14:23.231Z,6.20
2019-05-06T17:16:54.256Z,3.17
2019-05-06T17:19:25.331Z,6.37
2019-05-06T17:23:58.247Z,3.23
2019-05-06T17:26:28.439Z,3.00
2019-05-06T17:29:22.722Z,4.50
2019-05-06T17:32:12.924Z,4.67
2019-05-06T17:34:46.640Z,3.27
2019-05-06T17:37:37.058Z,3.40
2019-05-06T17:40:11.794Z,4.03
2019-05-06T17:42:42.247Z,8.53
2019-05-06T17:45:32.129Z,6.80
2019-05-06T17:48:27.786Z,2.97
2019-05-06T17:51:19.107Z,7.00
2019-05-06T17:53:52.262Z,10.97
2019-05-06T17:56:23.363Z,11.60
2019-05-06T17:58:53.693Z,8.43
2019-05-06T18:01:32.681Z,8.33
2019-05-06T18:04:03.247Z,8.10
2019-05-06T18:06:34.424Z,10.50
2019-05-06T18:09:07.963Z,10.40
2019-05-06T18:11:42.459Z,17.87
2019-05-06T18:14:13.208Z,6.70
2019-05-06T18:16:44.292Z,4.70
2019-05-06T18:19:15.291Z,4.83
2019-05-06T18:21:46.272Z,6.77
2019-05-06T18:24:17.324Z,5.23
2019-05-06T18:26:47.732Z,8.87
2019-05-06T18:29:18.591Z,6.10
2019-05-06T18:31:48.986Z,6.17
2019-05-06T18:34:19.783Z,12.37
2019-05-06T18:36:52.455Z,24.50
2019-05-06T18:39:23.591Z,6.40
2019-05-06T18:41:54.651Z,6.93
2019-05-06T18:44:25.732Z,10.20
2019-05-06T18:46:56.831Z,6.47
2019-05-06T18:49:27.143Z,9.87
2019-05-06T18:51:57.356Z,18.93
2019-05-06T18:54:27.491Z,18.70
2019-05-06T18:56:58.311Z,20.90
2019-05-06T18:59:29.312Z,20.60
2019-05-06T19:02:01.947Z,15.00
2019-05-06T19:04:47.148Z,9.80
2019-05-06T19:07:18.235Z,9.43
2019-05-06T19:09:57.259Z,7.10
2019-05-06T19:12:34.485Z,8.70
2019-05-06T19:15:03.137Z,10.27
2019-05-06T19:17:33.766Z,13.53
2019-05-06T19:20:05.062Z,8.83
2019-05-06T19:22:35.491Z,11.07
2019-05-06T19:25:06.607Z,10.33
2019-05-06T19:27:37.676Z,8.10
2019-05-06T19:30:08.968Z,12.47
2019-05-06T19:32:42.379Z,14.10
2019-05-06T19:35:13.261Z,15.40
2019-05-06T19:37:44.552Z,15.87
2019-05-06T19:40:14.939Z,17.53
2019-05-06T19:42:49.725Z,18.27
2019-05-06T19:45:18.839Z,16.30
2019-05-06T19:47:52.166Z,14.50
2019-05-06T19:50:25.738Z,12.37
2019-05-06T19:52:55.167Z,15.83
2019-05-06T19:55:26.187Z,11.53
2019-05-06T19:57:58.222Z,12.47
2019-05-06T20:00:28.554Z,13.40
2019-05-06T20:02:59.563Z,17.27
2019-05-06T20:05:36.827Z,13.67
2019-05-06T20:08:32.527Z,13.47
2019-05-06T20:11:22.566Z,13.90
2019-05-06T20:13:52.992Z,15.00
2019-05-06T20:16:23.883Z,16.80
2019-05-06T20:18:54.819Z,15.63
2019-05-06T20:21:25.660Z,15.83
2019-05-06T20:23:56.679Z,16.50
2019-05-06T20:26:27.822Z,15.33
2019-05-06T20:28:58.171Z,16.90
2019-05-06T20:31:28.363Z,16.70
2019-05-06T20:33:59.187Z,20.83
2019-05-06T20:36:32.908Z,17.40
2019-05-06T20:39:03.847Z,16.33
2019-05-06T20:41:36.605Z,17.90
2019-05-06T20:44:07.663Z,17.13
2019-05-06T20:46:38.703Z,19.57
2019-05-06T20:49:13.076Z,19.73
2019-05-06T20:51:43.403Z,16.40
2019-05-06T20:54:14.471Z,19.83
2019-05-06T20:56:46.983Z,15.60
2019-05-06T20:59:18.116Z,17.33
2019-05-06T21:01:49.096Z,17.40
2019-05-06T21:04:20.111Z,14.47
2019-05-06T21:06:51.091Z,13.47
2019-05-06T21:09:23.283Z,15.73
2019-05-06T21:11:54.568Z,18.73
2019-05-06T21:14:25.624Z,13.67
2019-05-06T21:16:56.047Z,13.53
2019-05-06T21:19:27.199Z,16.80
2019-05-06T21:21:58.183Z,14.83
2019-05-06T21:24:29.236Z,12.33
2019-05-06T21:27:02.647Z,16.27
2019-05-06T21:29:33.878Z,14.37
2019-05-06T21:32:05.252Z,18.23
2019-05-06T21:34:36.267Z,16.37
2019-05-06T21:37:07.736Z,16.70
2019-05-06T21:39:38.835Z,19.50
2019-05-06T21:42:12.219Z,16.27
2019-05-06T21:44:48.347Z,17.73
2019-05-06T21:47:19.703Z,16.00
2019-05-06T21:49:52.778Z,19.90
2019-05-06T21:52:36.278Z,16.40
2019-05-06T21:55:02.386Z,19.60
2019-05-06T21:57:32.719Z,18.93
2019-05-06T22:00:05.396Z,23.40
2019-05-06T22:02:38.118Z,15.77
2019-05-06T22:05:09.635Z,18.47
2019-05-06T22:07:40.035Z,16.70
2019-05-06T22:10:10.971Z,19.97
2019-05-06T22:12:43.431Z,16.83
2019-05-06T22:15:15.211Z,18.20
2019-05-06T22:17:46.259Z,15.27
2019-05-06T22:20:17.411Z,15.93
2019-05-06T22:22:48.429Z,16.43
2019-05-06T22:25:19.492Z,15.53
2019-05-06T22:27:51.953Z,15.83
2019-05-06T22:30:23.871Z,19.63
2019-05-06T22:32:55.079Z,16.33
2019-05-06T22:35:26.146Z,15.17
2019-05-06T22:37:57.251Z,14.47
2019-05-06T22:40:28.236Z,16.80
2019-05-06T22:42:59.276Z,15.67
2019-05-06T22:45:30.335Z,18.83
2019-05-06T22:48:02.090Z,19.30
2019-05-06T22:50:33.115Z,15.33
2019-05-06T22:53:04.125Z,16.23
2019-05-06T22:55:35.119Z,16.33
2019-05-06T22:58:06.191Z,18.93
2019-05-06T23:00:42.434Z,18.33
2019-05-06T23:03:15.411Z,15.17
2019-05-06T23:05:46.454Z,16.90
2019-05-06T23:08:17.562Z,15.73
2019-05-06T23:10:48.636Z,14.07
2019-05-06T23:13:19.697Z,14.40
2019-05-06T23:15:52.364Z,15.97
2019-05-06T23:18:24.376Z,20.17
2019-05-06T23:20:55.371Z,13.30
2019-05-06T23:23:26.443Z,13.20
2019-05-06T23:26:25.409Z,13.40
2019-05-06T23:28:55.810Z,15.40
2019-05-06T23:31:26.647Z,18.20
2019-05-06T23:33:57.643Z,13.47
2019-05-06T23:36:32.915Z,17.17
2019-05-06T23:39:22.900Z,15.60
2019-05-06T23:42:29.459Z,13.43
2019-05-06T23:45:36.195Z,15.77
2019-05-06T23:48:24.455Z,15.00
2019-05-06T23:51:33.082Z,17.50
2019-05-06T23:54:42.756Z,12.50
2019-05-06T23:57:11.743Z,12.60
2019-05-06T23:59:43.136Z,14.53
